Time;durP1;ratioP1;P1;durP2;ratioP2;P2;SDS_P1;SDS_P2;PMS_P1;PMS_P2;Temp;Humidity;BMP_temperature;BMP_pressure;BME280_temperature;BME280_humidity;BME280_pressure;Samples;Min_cycle;Max_cycle;Signal;HPM_P1;HPM_P2
2024/01/19 00:02:01;;;;;;;45.53;11.40;;;3.30;99.90;;;;;;7394592;19;20018;-78
2024/01/19 00:04:32;;;;;;;18.38;8.82;;;3.30;99.90;;;;;;7392545;19;20014;-79
2024/01/19 00:07:01;;;;;;;;;;;3.30;99.90;;;;;;7391353;19;20027;-79
2024/01/19 00:09:29;;;;;;;17.63;8.73;;;3.30;99.90;;;;;;7414855;19;20226;-78
2024/01/19 00:11:58;;;;;;;17.83;8.73;;;3.30;99.90;;;;;;7393516;19;20010;-79
2024/01/19 00:14:28;;;;;;;13.75;7.55;;;3.30;99.90;;;;;;7392888;19;20014;-79
2024/01/19 00:16:56;;;;;;;17.73;7.60;;;3.30;99.90;;;;;;7393785;19;20369;-79
2024/01/19 00:19:25;;;;;;;13.98;7.43;;;3.30;99.90;;;;;;7394018;19;20013;-81
2024/01/19 00:21:56;;;;;;;19.10;7.97;;;3.30;99.90;;;;;;7392506;19;20019;-80
2024/01/19 00:24:25;;;;;;;;;;;3.20;99.90;;;;;;7413298;19;20220;-79
2024/01/19 00:26:54;;;;;;;20.83;7.93;;;3.20;99.90;;;;;;7391092;19;20211;-79
2024/01/19 00:29:24;;;;;;;16.52;8.52;;;3.20;99.90;;;;;;7392369;19;20026;-78
2024/01/19 00:31:50;;;;;;;20.48;9.50;;;3.20;99.90;;;;;;7393459;19;20010;-80
2024/01/19 00:34:19;;;;;;;24.75;9.57;;;3.20;99.90;;;;;;7391069;19;20017;-78
2024/01/19 00:36:47;;;;;;;20.55;10.25;;;3.20;99.90;;;;;;7389608;19;20383;-79
2024/01/19 00:39:19;;;;;;;19.90;9.80;;;3.10;99.90;;;;;;7410017;19;20235;-79
2024/01/19 00:41:47;;;;;;;;;;;3.20;99.90;;;;;;7390228;19;20011;-77
2024/01/19 00:44:16;;;;;;;16.60;8.40;;;3.20;99.90;;;;;;7390626;19;20238;-79
2024/01/19 00:46:45;;;;;;;16.73;9.55;;;3.20;99.90;;;;;;7389963;19;20337;-77
2024/01/19 00:49:13;;;;;;;21.27;9.73;;;3.20;99.90;;;;;;7389472;19;20006;-79
2024/01/19 00:51:42;;;;;;;22.30;10.27;;;3.10;99.90;;;;;;7409399;19;20006;-80
2024/01/19 00:54:12;;;;;;;26.42;9.18;;;3.10;99.90;;;;;;7389295;19;20016;-80
2024/01/19 00:56:43;;;;;;;21.35;9.40;;;3.20;99.90;;;;;;7386282;19;20002;-78
2024/01/19 00:59:12;;;;;;;;;;;3.10;99.90;;;;;;7388606;19;20026;-80
2024/01/19 01:01:40;;;;;;;26.67;9.43;;;3.10;99.90;;;;;;7386994;19;19934;-78
2024/01/19 01:04:09;;;;;;;14.10;8.27;;;3.20;99.90;;;;;;7389424;19;20382;-78
2024/01/19 01:06:38;;;;;;;22.63;8.90;;;3.10;99.90;;;;;;7411381;19;20007;-79
2024/01/19 01:09:07;;;;;;;17.77;8.20;;;3.10;99.90;;;;;;7390076;19;20349;-79
2024/01/19 01:11:36;;;;;;;19.63;8.40;;;3.10;99.90;;;;;;7389702;19;20011;-78
2024/01/19 01:14:09;;;;;;;16.75;8.15;;;3.10;99.90;;;;;;7389484;19;20038;-78
2024/01/19 01:16:37;;;;;;;17.73;8.15;;;3.10;99.90;;;;;;7390415;19;20024;-78
2024/01/19 01:19:06;;;;;;;21.30;9.40;;;3.10;99.90;;;;;;7388234;19;20389;-78
2024/01/19 01:21:35;;;;;;;19.90;8.93;;;3.10;99.90;;;;;;7410712;19;20015;-79
2024/01/19 01:24:03;;;;;;;17.58;9.35;;;3.10;99.90;;;;;;7390665;19;20002;-78
2024/01/19 01:26:32;;;;;;;35.03;9.77;;;3.10;99.90;;;;;;7389990;19;20007;-79
2024/01/19 01:29:01;;;;;;;25.65;9.95;;;3.00;99.90;;;;;;7388158;19;20003;-78
2024/01/19 01:31:32;;;;;;;26.70;10.40;;;2.90;99.90;;;;;;7387502;19;20026;-78
2024/01/19 01:34:03;;;;;;;20.35;10.18;;;2.90;99.90;;;;;;7387271;19;20342;-79
2024/01/19 01:36:32;;;;;;;20.00;10.60;;;2.90;99.90;;;;;;7407905;19;20007;-77
2024/01/19 01:39:01;;;;;;;21.15;10.00;;;2.90;99.90;;;;;;7386266;19;20013;-79
2024/01/19 01:41:29;;;;;;;24.98;9.98;;;2.90;99.90;;;;;;7388382;19;20020;-79
2024/01/19 01:43:59;;;;;;;22.98;8.35;;;2.90;99.90;;;;;;7390993;19;20045;-78
2024/01/19 01:46:27;;;;;;;15.27;8.82;;;3.00;99.90;;;;;;7390863;19;20082;-78
2024/01/19 01:48:59;;;;;;;20.67;10.30;;;3.00;99.90;;;;;;7388449;19;20017;-79
2024/01/19 01:51:28;;;;;;;23.35;9.40;;;3.00;99.90;;;;;;7412663;19;20540;-79
2024/01/19 01:53:57;;;;;;;23.58;10.15;;;2.90;99.90;;;;;;7387552;19;20011;-78
2024/01/19 01:56:27;;;;;;;19.13;8.70;;;2.90;99.90;;;;;;7386533;19;20369;-78
2024/01/19 01:58:56;;;;;;;15.95;8.68;;;2.90;99.90;;;;;;7387172;19;20010;-78
2024/01/19 02:01:24;;;;;;;22.90;9.02;;;2.90;99.90;;;;;;7387186;19;20006;-78
2024/01/19 02:03:56;;;;;;;21.30;8.48;;;2.90;99.90;;;;;;7388858;19;20290;-78
2024/01/19 02:06:27;;;;;;;18.52;8.50;;;2.90;99.90;;;;;;7409414;19;20402;-79
2024/01/19 02:08:56;;;;;;;16.73;8.43;;;2.90;99.90;;;;;;7386494;19;20020;-78
2024/01/19 02:11:25;;;;;;;18.92;8.75;;;2.90;99.90;;;;;;7384677;19;20377;-78
2024/01/19 02:13:54;;;;;;;15.48;7.60;;;2.90;99.90;;;;;;7385901;19;20271;-78
2024/01/19 02:16:22;;;;;;;15.70;8.45;;;2.90;99.90;;;;;;7384317;19;20007;-78
2024/01/19 02:18:54;;;;;;;18.67;9.05;;;2.90;99.90;;;;;;7386940;19;20018;-77
2024/01/19 02:21:23;;;;;;;30.00;7.47;;;2.90;99.90;;;;;;7410005;19;20007;-78
2024/01/19 02:24:01;;;;;;;19.17;8.90;;;2.90;99.90;;;;;;7384525;19;19999;-78
2024/01/19 02:26:34;;;;;;;36.05;8.05;;;2.80;99.90;;;;;;7386061;19;20003;-79
2024/01/19 02:29:03;;;;;;;20.08;8.05;;;2.90;99.90;;;;;;7384451;19;20066;-78
2024/01/19 02:31:32;;;;;;;16.17;8.57;;;2.80;99.90;;;;;;7388592;19;20465;-79
2024/01/19 02:34:01;;;;;;;20.02;8.80;;;2.90;99.90;;;;;;7387789;19;20007;-78
2024/01/19 02:36:29;;;;;;;21.45;9.13;;;2.90;99.90;;;;;;7411657;19;20033;-77
2024/01/19 02:38:58;;;;;;;20.23;8.98;;;2.90;99.90;;;;;;7383814;19;20015;-79
2024/01/19 02:41:27;;;;;;;16.23;8.10;;;2.90;99.90;;;;;;7382708;19;20060;-77
2024/01/19 02:43:58;;;;;;;16.30;8.20;;;2.80;99.90;;;;;;7386397;19;20549;-78
2024/01/19 02:46:26;;;;;;;;;;;2.80;99.90;;;;;;7387624;19;20010;-79
2024/01/19 02:48:55;;;;;;;19.98;7.10;;;2.80;99.90;;;;;;7378826;19;19924;-78
2024/01/19 02:51:24;;;;;;;20.08;7.60;;;2.80;99.90;;;;;;7400407;19;20027;-78
2024/01/19 02:53:53;;;;;;;22.25;9.00;;;2.70;99.90;;;;;;7379923;19;20010;-78
2024/01/19 02:56:21;;;;;;;17.70;8.23;;;2.70;99.90;;;;;;7383774;19;20003;-78
2024/01/19 02:58:50;;;;;;;15.85;7.57;;;2.70;99.90;;;;;;7382966;19;20011;-78
2024/01/19 03:01:21;;;;;;;23.02;8.07;;;2.70;99.90;;;;;;7382659;19;20094;-78
2024/01/19 03:03:50;;;;;;;26.92;9.00;;;2.70;99.90;;;;;;7384133;19;20018;-78
2024/01/19 03:06:19;;;;;;;17.20;9.10;;;2.70;99.90;;;;;;7407605;19;20027;-79
2024/01/19 03:08:47;;;;;;;16.50;9.27;;;2.80;99.90;;;;;;7386548;19;20027;-78
2024/01/19 03:11:16;;;;;;;16.73;8.75;;;2.70;99.90;;;;;;7387751;19;20013;-79
2024/01/19 03:13:45;;;;;;;19.52;8.82;;;2.70;99.90;;;;;;7384905;19;20007;-78
2024/01/19 03:16:13;;;;;;;22.77;9.20;;;2.60;99.90;;;;;;7385719;19;20038;-78
2024/01/19 03:18:45;;;;;;;26.48;9.85;;;2.60;99.90;;;;;;7405857;19;20041;-78
2024/01/19 03:21:14;;;;;;;25.25;9.32;;;2.60;99.90;;;;;;7378056;19;20382;-76
2024/01/19 03:23:43;;;;;;;23.85;7.65;;;2.60;99.90;;;;;;7381052;19;20361;-78
2024/01/19 03:26:12;;;;;;;18.13;8.27;;;2.60;99.90;;;;;;7387214;19;20233;-77
2024/01/19 03:28:40;;;;;;;17.90;7.95;;;2.60;99.90;;;;;;7387656;19;20023;-77
2024/01/19 03:31:09;;;;;;;18.40;8.38;;;2.60;99.90;;;;;;7386851;19;20011;-78
2024/01/19 03:33:38;;;;;;;17.67;7.40;;;2.60;99.90;;;;;;7416109;19;20014;-79
2024/01/19 03:36:10;;;;;;;10.95;6.53;;;2.60;99.90;;;;;;7396327;19;20260;-77
2024/01/19 03:38:38;;;;;;;14.73;7.80;;;2.60;99.90;;;;;;7390835;19;20356;-78
2024/01/19 03:41:07;;;;;;;18.10;8.52;;;2.60;99.90;;;;;;7391484;19;20002;-78
2024/01/19 03:43:36;;;;;;;18.95;8.65;;;2.60;99.90;;;;;;7391522;19;20024;-77
2024/01/19 03:46:05;;;;;;;13.63;7.55;;;2.50;99.90;;;;;;7390772;19;20014;-78
2024/01/19 03:48:33;;;;;;;23.63;8.90;;;2.50;99.90;;;;;;7411901;19;20006;-78
2024/01/19 03:51:02;;;;;;;24.52;7.80;;;2.50;99.90;;;;;;7389672;19;20006;-78
2024/01/19 03:53:33;;;;;;;17.60;6.93;;;2.40;99.90;;;;;;7387674;19;20015;-78
2024/01/19 03:56:02;;;;;;;;;;;2.30;99.90;;;;;;7390840;19;20010;-77
2024/01/19 03:58:30;;;;;;;19.63;5.80;;;2.20;99.90;;;;;;7389681;19;19911;-79
2024/01/19 04:00:59;;;;;;;15.38;7.35;;;2.10;99.90;;;;;;7388111;19;20020;-77
2024/01/19 04:03:28;;;;;;;14.35;7.40;;;2.20;99.90;;;;;;7408768;19;20010;-77
2024/01/19 04:05:56;;;;;;;15.93;7.55;;;2.20;99.90;;;;;;7389549;19;20408;-77
2024/01/19 04:08:25;;;;;;;18.85;8.20;;;2.20;99.90;;;;;;7390735;19;20016;-77
2024/01/19 04:10:57;;;;;;;14.82;8.20;;;2.20;99.90;;;;;;7389563;19;20034;-78
2024/01/19 04:13:26;;;;;;;18.30;9.32;;;2.30;99.90;;;;;;7388332;19;20359;-77
2024/01/19 04:15:55;;;;;;;16.33;7.32;;;2.30;99.90;;;;;;7407942;19;20122;-78
2024/01/19 04:18:24;;;;;;;15.27;8.65;;;2.40;99.90;;;;;;7384854;19;20003;-78
2024/01/19 04:20:52;;;;;;;20.00;7.75;;;2.40;99.90;;;;;;7384609;19;20014;-77
2024/01/19 04:23:21;;;;;;;24.13;8.63;;;2.40;99.90;;;;;;7386093;19;20068;-77
2024/01/19 04:25:49;;;;;;;18.92;8.07;;;2.40;99.90;;;;;;7388282;19;20066;-77
2024/01/19 04:28:21;;;;;;;25.33;8.43;;;2.40;99.90;;;;;;7384747;19;20271;-77
2024/01/19 04:30:49;;;;;;;;;;;2.40;99.90;;;;;;7409964;19;20235;-78
2024/01/19 04:33:18;;;;;;;13.30;7.15;;;2.40;99.90;;;;;;7384804;19;19915;-77
2024/01/19 04:35:46;;;;;;;14.55;6.53;;;2.40;99.90;;;;;;7384347;19;20027;-77
2024/01/19 04:38:15;;;;;;;15.75;7.57;;;2.50;99.90;;;;;;7382948;19;20361;-78
2024/01/19 04:40:46;;;;;;;20.08;8.57;;;2.50;99.90;;;;;;7386458;19;20034;-77
2024/01/19 04:43:15;;;;;;;20.70;8.48;;;2.50;99.90;;;;;;7388918;19;20006;-78
2024/01/19 04:45:47;;;;;;;14.50;7.78;;;2.50;99.90;;;;;;7408613;19;20002;-77
2024/01/19 04:48:16;;;;;;;15.07;7.97;;;2.50;99.90;;;;;;7386555;19;20085;-78
2024/01/19 04:50:44;;;;;;;36.53;9.52;;;2.40;99.90;;;;;;7387319;19;20019;-79
2024/01/19 04:53:13;;;;;;;16.27;7.72;;;2.40;99.90;;;;;;7384231;19;20003;-77
2024/01/19 04:55:42;;;;;;;16.38;7.35;;;2.40;99.90;;;;;;7383646;19;20006;-77
2024/01/19 04:58:11;;;;;;;11.38;7.20;;;2.40;99.90;;;;;;7387263;19;20285;-78
2024/01/19 05:00:39;;;;;;;23.08;8.25;;;2.40;99.90;;;;;;7405374;19;20252;-77
2024/01/19 05:03:11;;;;;;;16.67;7.75;;;2.40;99.90;;;;;;7385314;19;20027;-78
2024/01/19 05:05:40;;;;;;;19.98;7.07;;;2.40;99.90;;;;;;7385633;19;20079;-78
2024/01/19 05:08:10;;;;;;;26.52;9.15;;;2.40;99.90;;;;;;7386308;19;20007;-79
2024/01/19 05:10:38;;;;;;;25.60;8.25;;;2.40;99.90;;;;;;7390860;19;20003;-79
2024/01/19 05:13:07;;;;;;;18.67;8.82;;;2.40;99.90;;;;;;7388957;19;20256;-78
2024/01/19 05:15:37;;;;;;;14.73;8.07;;;2.40;99.90;;;;;;7410282;19;20006;-78
2024/01/19 05:18:06;;;;;;;18.13;7.78;;;2.40;99.90;;;;;;7384119;19;20010;-78
2024/01/19 05:20:38;;;;;;;17.52;7.55;;;2.40;99.90;;;;;;7388811;19;20007;-78
2024/01/19 05:23:07;;;;;;;15.35;7.82;;;2.40;99.90;;;;;;7390702;19;20016;-78
2024/01/19 05:25:36;;;;;;;22.00;8.00;;;2.40;99.90;;;;;;7389025;19;20033;-78
2024/01/19 05:28:06;;;;;;;14.15;7.53;;;2.40;99.90;;;;;;7389861;19;20007;-78
2024/01/19 05:30:36;;;;;;;19.25;8.32;;;2.30;99.90;;;;;;7414128;19;20010;-79
2024/01/19 05:33:05;;;;;;;18.10;7.97;;;2.40;99.90;;;;;;7393877;19;20022;-78
2024/01/19 05:35:33;;;;;;;18.60;8.05;;;2.40;99.90;;;;;;7395348;19;20006;-79
2024/01/19 05:38:06;;;;;;;14.13;7.20;;;2.30;99.90;;;;;;7387088;19;20006;-79
2024/01/19 05:40:35;;;;;;;14.85;7.82;;;2.30;99.90;;;;;;7387649;19;20007;-79
2024/01/19 05:43:04;;;;;;;21.45;8.55;;;2.30;99.90;;;;;;7387842;19;20006;-78
2024/01/19 05:45:33;;;;;;;15.05;7.60;;;2.30;99.90;;;;;;7408888;19;20054;-78
2024/01/19 05:48:01;;;;;;;17.50;8.30;;;2.30;99.90;;;;;;7385705;19;20052;-79
2024/01/19 05:50:30;;;;;;;18.42;7.90;;;2.30;99.90;;;;;;7386340;19;20019;-78
2024/01/19 05:52:59;;;;;;;18.50;7.93;;;2.30;99.90;;;;;;7387704;19;20003;-78
2024/01/19 05:55:33;;;;;;;17.15;7.45;;;2.30;99.90;;;;;;7387674;19;20027;-78
2024/01/19 05:58:03;;;;;;;21.45;8.18;;;2.20;99.90;;;;;;7386763;19;20011;-78
2024/01/19 06:00:32;;;;;;;13.07;7.70;;;2.20;99.90;;;;;;7406845;19;20029;-79
2024/01/19 06:03:00;;;;;;;21.52;8.65;;;2.20;99.90;;;;;;7386358;19;20018;-77
2024/01/19 06:05:29;;;;;;;18.08;8.45;;;2.20;99.90;;;;;;7384035;19;20003;-78
2024/01/19 06:07:58;;;;;;;24.95;9.55;;;2.20;99.90;;;;;;7383913;19;20012;-78
2024/01/19 06:10:26;;;;;;;13.90;8.27;;;2.20;99.90;;;;;;7383202;19;20006;-79
2024/01/19 06:12:58;;;;;;;22.15;9.38;;;2.20;99.90;;;;;;7407040;19;20015;-78
2024/01/19 06:15:26;;;;;;;22.90;9.10;;;2.10;99.90;;;;;;7384249;19;20012;-78
2024/01/19 06:17:55;;;;;;;18.27;9.23;;;2.10;99.90;;;;;;7382658;19;20006;-78
2024/01/19 06:20:24;;;;;;;28.45;8.63;;;2.10;99.90;;;;;;7384262;19;20357;-78
2024/01/19 06:22:53;;;;;;;17.02;8.40;;;2.10;99.90;;;;;;7384406;19;20072;-79
2024/01/19 06:25:21;;;;;;;24.00;8.63;;;2.00;99.90;;;;;;7386397;19;19995;-79
2024/01/19 06:27:50;;;;;;;17.90;8.48;;;2.10;99.90;;;;;;7402978;19;20007;-78
2024/01/19 06:30:22;;;;;;;17.65;8.80;;;2.10;99.90;;;;;;7383140;19;20017;-78
2024/01/19 06:32:51;;;;;;;18.83;8.27;;;2.00;99.90;;;;;;7383984;19;20011;-79
2024/01/19 06:35:20;;;;;;;20.52;9.50;;;2.00;99.90;;;;;;7385043;19;20006;-78
2024/01/19 06:37:48;;;;;;;17.27;8.52;;;2.00;99.90;;;;;;7381968;19;20030;-79
2024/01/19 06:40:18;;;;;;;21.25;9.65;;;2.00;99.90;;;;;;7381601;19;20111;-78
2024/01/19 06:42:46;;;;;;;20.60;9.95;;;2.00;99.90;;;;;;7405690;19;20003;-79
2024/01/19 06:45:18;;;;;;;27.52;9.05;;;2.00;99.90;;;;;;7382505;19;20015;-78
2024/01/19 06:47:50;;;;;;;26.70;9.05;;;2.00;99.90;;;;;;7382807;19;20087;-78
2024/01/19 06:50:19;;;;;;;23.38;8.63;;;2.00;99.90;;;;;;7384794;19;20015;-78
2024/01/19 06:52:48;;;;;;;20.38;9.18;;;2.00;99.90;;;;;;7384692;19;20071;-78
2024/01/19 06:55:18;;;;;;;15.10;8.40;;;2.00;99.90;;;;;;7384099;19;20223;-79
2024/01/19 06:57:47;;;;;;;27.13;9.18;;;2.00;99.90;;;;;;7406393;19;20354;-79
2024/01/19 07:00:18;;;;;;;17.85;8.80;;;2.10;99.90;;;;;;7387669;19;20262;-78
2024/01/19 07:02:49;;;;;;;14.52;8.57;;;2.00;99.90;;;;;;7390942;19;20002;-78
2024/01/19 07:05:18;;;;;;;28.52;9.45;;;2.10;99.90;;;;;;7391346;19;20334;-77
2024/01/19 07:07:48;;;;;;;24.15;10.45;;;2.10;99.90;;;;;;7391940;19;20007;-78
2024/01/19 07:10:22;;;;;;;22.35;11.40;;;2.00;99.90;;;;;;7396229;19;20011;-78
2024/01/19 07:12:51;;;;;;;28.13;9.05;;;2.00;99.90;;;;;;7412987;19;20006;-78
2024/01/19 07:15:20;;;;;;;22.35;10.30;;;2.00;99.90;;;;;;7388365;19;20599;-78
2024/01/19 07:17:51;;;;;;;28.23;10.10;;;2.00;99.90;;;;;;7387383;19;20010;-78
2024/01/19 07:20:20;;;;;;;17.75;9.27;;;1.90;99.90;;;;;;7386906;19;20259;-78
2024/01/19 07:22:49;;;;;;;19.77;9.38;;;1.80;99.90;;;;;;7387232;19;20010;-78
2024/01/19 07:25:17;;;;;;;22.17;8.65;;;1.90;99.90;;;;;;7386711;19;20015;-78
2024/01/19 07:27:46;;;;;;;25.35;9.40;;;1.80;99.90;;;;;;7410262;19;20046;-78
2024/01/19 07:30:15;;;;;;;27.67;9.48;;;1.80;99.90;;;;;;7386713;19;20350;-78
2024/01/19 07:32:44;;;;;;;19.80;10.30;;;1.80;99.90;;;;;;7387674;19;20007;-78
2024/01/19 07:35:15;;;;;;;27.40;9.55;;;1.80;99.90;;;;;;7387824;19;20003;-78
2024/01/19 07:37:44;;;;;;;23.65;10.15;;;1.80;99.90;;;;;;7385949;19;20078;-78
2024/01/19 07:40:14;;;;;;;21.50;10.68;;;1.80;99.90;;;;;;7386881;19;20019;-79
2024/01/19 07:42:42;;;;;;;34.10;12.38;;;1.80;99.90;;;;;;7405997;19;20029;-78
2024/01/19 07:45:12;;;;;;;24.60;10.82;;;1.90;99.90;;;;;;7387889;19;20010;-78
2024/01/19 07:47:40;;;;;;;24.17;10.77;;;1.80;99.90;;;;;;7389194;19;20010;-77
2024/01/19 07:50:13;;;;;;;23.63;10.23;;;1.90;99.90;;;;;;7390088;19;20015;-78
2024/01/19 07:52:46;;;;;;;18.15;10.48;;;1.90;99.90;;;;;;7390621;19;20094;-77
2024/01/19 07:55:15;;;;;;;25.25;10.80;;;2.00;99.90;;;;;;7388636;19;20011;-78
2024/01/19 07:57:45;;;;;;;19.00;9.55;;;2.00;99.90;;;;;;7409541;19;20018;-79
2024/01/19 08:00:15;;;;;;;18.08;9.50;;;2.00;99.90;;;;;;7383570;19;20038;-75
2024/01/19 08:02:44;;;;;;;25.50;10.80;;;2.00;99.90;;;;;;7383388;19;20014;-75
2024/01/19 08:05:16;;;;;;;23.23;9.25;;;1.90;99.90;;;;;;7390477;19;20039;-79
2024/01/19 08:07:48;;;;;;;27.42;11.35;;;1.90;99.90;;;;;;7397271;19;20019;-78
2024/01/19 08:10:22;;;;;;;30.00;13.82;;;1.90;99.90;;;;;;7395773;19;20029;-80
2024/01/19 08:12:53;;;;;;;45.65;19.40;;;1.90;99.90;;;;;;7418084;19;20006;-78
2024/01/19 08:15:21;;;;;;;41.50;17.88;;;2.00;99.90;;;;;;7403676;19;20547;-76
2024/01/19 08:17:51;;;;;;;42.35;15.75;;;2.00;99.90;;;;;;7406592;19;20011;-81
2024/01/19 08:20:25;;;;;;;36.15;15.35;;;2.00;99.90;;;;;;7395833;19;20078;-81
2024/01/19 08:22:56;;;;;;;46.38;17.17;;;2.00;99.90;;;;;;7394039;19;20007;-80
2024/01/19 08:25:25;;;;;;;34.55;16.65;;;2.10;99.90;;;;;;7395357;19;20011;-79
2024/01/19 08:27:55;;;;;;;33.22;14.05;;;2.10;99.90;;;;;;7411508;19;20010;-79
2024/01/19 08:30:27;;;;;;;29.73;13.50;;;2.10;99.90;;;;;;7391017;19;20123;-79
2024/01/19 08:32:55;;;;;;;29.45;12.25;;;2.10;99.90;;;;;;7391715;19;20297;-79
2024/01/19 08:35:26;;;;;;;32.80;13.32;;;2.10;99.90;;;;;;7395097;19;20274;-79
2024/01/19 08:37:59;;;;;;;66.53;23.85;;;2.10;99.90;;;;;;7386926;19;20006;-78
2024/01/19 08:40:28;;;;;;;104.57;39.00;;;2.10;99.90;;;;;;7388408;19;20049;-78
2024/01/19 08:43:01;;;;;;;101.03;33.53;;;2.10;99.90;;;;;;7407226;19;20014;-77
2024/01/19 08:45:30;;;;;;;56.55;21.55;;;2.20;99.90;;;;;;7383502;19;20003;-77
2024/01/19 08:47:59;;;;;;;44.58;17.50;;;2.10;99.90;;;;;;7387111;19;20007;-78
2024/01/19 08:50:28;;;;;;;50.40;19.80;;;2.20;99.90;;;;;;7388421;19;20065;-77
2024/01/19 08:52:59;;;;;;;64.85;22.00;;;2.20;99.90;;;;;;7386167;19;20005;-75
2024/01/19 08:55:28;;;;;;;;;;;2.20;99.90;;;;;;7384434;19;20019;-76
2024/01/19 08:57:58;;;;;;;86.45;27.15;;;2.30;99.90;;;;;;7405593;19;19921;-77
2024/01/19 09:00:29;;;;;;;77.60;24.10;;;2.30;99.90;;;;;;7382196;19;20029;-78
2024/01/19 09:03:04;;;;;;;39.50;17.73;;;2.30;99.90;;;;;;7390577;19;20078;-79
2024/01/19 09:05:34;;;;;;;36.88;15.75;;;2.40;99.90;;;;;;7390226;19;20078;-78
2024/01/19 09:08:06;;;;;;;33.58;14.95;;;2.40;99.90;;;;;;7388039;19;20013;-78
2024/01/19 09:10:34;;;;;;;40.30;15.98;;;2.50;99.90;;;;;;7384369;19;20016;-79
2024/01/19 09:13:03;;;;;;;52.08;18.23;;;2.50;99.90;;;;;;7407570;19;20078;-79
2024/01/19 09:15:32;;;;;;;41.67;18.55;;;2.50;99.90;;;;;;7384158;19;20063;-78
2024/01/19 09:18:00;;;;;;;29.73;16.20;;;2.50;99.90;;;;;;7386163;19;20010;-79
2024/01/19 09:20:26;;;;;;;45.13;16.45;;;2.60;99.90;;;;;;7382928;19;20024;-77
2024/01/19 09:23:00;;;;;;;49.20;19.83;;;2.60;99.90;;;;;;7380128;19;20006;-80
2024/01/19 09:25:32;;;;;;;54.25;22.75;;;2.60;99.90;;;;;;7384618;19;20489;-79
2024/01/19 09:28:01;;;;;;;;;;;2.60;99.90;;;;;;7407852;19;20018;-77
2024/01/19 09:30:30;;;;;;;44.53;17.13;;;2.70;99.90;;;;;;7382294;19;19911;-78
2024/01/19 09:33:01;;;;;;;53.03;19.50;;;2.70;99.90;;;;;;7384601;19;20007;-79
2024/01/19 09:35:31;;;;;;;50.20;20.65;;;2.80;99.90;;;;;;7384904;19;20006;-78
2024/01/19 09:37:59;;;;;;;68.28;24.90;;;2.80;99.90;;;;;;7383928;19;19998;-78
2024/01/19 09:40:28;;;;;;;98.15;34.42;;;2.90;99.90;;;;;;7380617;19;20010;-77
2024/01/19 09:43:00;;;;;;;64.25;26.45;;;3.00;99.90;;;;;;7404623;19;20063;-77
2024/01/19 09:45:32;;;;;;;43.88;16.80;;;3.00;99.90;;;;;;7386704;19;20018;-78
2024/01/19 09:48:12;;;;;;;39.00;18.83;;;3.00;99.90;;;;;;7385851;19;19999;-76
2024/01/19 09:50:46;;;;;;;49.17;21.40;;;3.10;99.90;;;;;;7384044;19;20007;-77
2024/01/19 09:53:32;;;;;;;58.65;26.88;;;3.10;99.90;;;;;;7383817;19;20011;-81
2024/01/19 09:56:03;;;;;;;75.57;28.10;;;3.20;99.90;;;;;;7410830;19;20007;-79
2024/01/19 09:58:34;;;;;;;84.78;31.52;;;3.20;99.90;;;;;;7409597;19;20030;-79
2024/01/19 10:01:03;;;;;;;74.55;28.88;;;3.30;99.90;;;;;;7389660;19;20014;-79
2024/01/19 10:03:36;;;;;;;66.53;27.73;;;3.30;99.90;;;;;;7389679;19;20250;-78
2024/01/19 10:06:08;;;;;;;60.90;23.48;;;3.40;99.90;;;;;;7388130;19;20226;-79
2024/01/19 10:08:38;;;;;;;48.15;22.63;;;3.40;99.90;;;;;;7385948;19;20010;-80
2024/01/19 10:11:11;;;;;;;38.28;18.95;;;3.50;99.90;;;;;;7383736;19;20014;-77
2024/01/19 10:13:42;;;;;;;54.55;19.67;;;3.50;99.90;;;;;;7385452;19;20007;-77
2024/01/19 10:16:11;;;;;;;43.63;21.95;;;3.60;99.90;;;;;;7402921;19;20003;-77
2024/01/19 10:18:41;;;;;;;58.35;21.75;;;3.60;99.90;;;;;;7380412;19;20246;-78
2024/01/19 10:21:28;;;;;;;53.15;24.25;;;3.60;99.90;;;;;;7381583;19;20019;-80
2024/01/19 10:24:14;;;;;;;45.38;21.80;;;3.70;99.90;;;;;;7386509;19;20018;-77
2024/01/19 10:26:43;;;;;;;48.53;23.27;;;3.70;99.90;;;;;;7387775;19;20002;-81
2024/01/19 10:29:32;;;;;;;59.85;24.67;;;3.80;99.90;;;;;;7385159;19;20025;-82
2024/01/19 10:32:02;;;;;;;62.55;25.50;;;3.80;99.90;;;;;;7381889;19;20019;-81
2024/01/19 10:34:31;;;;;;;72.45;28.92;;;3.80;99.90;;;;;;7382937;19;20010;-76
2024/01/19 10:37:01;;;;;;;49.65;20.77;;;3.90;99.90;;;;;;7404523;19;20014;-78
2024/01/19 10:39:31;;;;;;;58.33;26.23;;;3.90;99.90;;;;;;7383501;19;20010;-79
2024/01/19 10:42:07;;;;;;;104.05;38.53;;;4.00;99.90;;;;;;7393118;19;20006;-79
2024/01/19 10:44:39;;;;;;;78.28;30.02;;;4.00;99.90;;;;;;7399952;19;20047;-76
2024/01/19 10:47:07;;;;;;;;;;;4.00;99.90;;;;;;7405386;19;20011;-76
2024/01/19 10:49:36;;;;;;;65.10;24.90;;;4.10;99.90;;;;;;7401711;19;19968;-77
2024/01/19 10:52:07;;;;;;;72.72;28.92;;;4.10;99.90;;;;;;7419495;19;20010;-78
2024/01/19 10:54:50;;;;;;;71.53;30.33;;;4.10;99.90;;;;;;7385080;19;20037;-81
2024/01/19 10:57:21;;;;;;;45.03;22.48;;;4.20;99.90;;;;;;7385109;19;20313;-80
2024/01/19 10:59:52;;;;;;;47.63;21.02;;;4.20;99.90;;;;;;7384643;19;20384;-79
2024/01/19 11:02:21;;;;;;;;;;;4.20;99.90;;;;;;7384565;19;20074;-79
2024/01/19 11:04:53;;;;;;;29.85;15.88;;;4.30;99.90;;;;;;7382576;19;19971;-81
2024/01/19 11:07:23;;;;;;;37.38;16.58;;;4.30;99.90;;;;;;7403330;19;20384;-78
2024/01/19 11:09:52;;;;;;;34.53;16.10;;;4.30;99.90;;;;;;7380196;19;20013;-79
2024/01/19 11:12:25;;;;;;;42.42;16.90;;;4.40;99.90;;;;;;7382373;19;20014;-81
2024/01/19 11:15:02;;;;;;;30.45;16.13;;;4.40;99.90;;;;;;7381900;19;20393;-77
2024/01/19 11:17:33;;;;;;;33.17;15.13;;;4.40;99.90;;;;;;7384613;19;20026;-77
2024/01/19 11:20:08;;;;;;;;;;;4.40;99.90;;;;;;7384651;19;20010;-82
2024/01/19 11:22:37;;;;;;;36.10;15.80;;;4.40;99.90;;;;;;7382522;19;20474;-82
2024/01/19 11:25:11;;;;;;;28.80;14.02;;;4.50;99.90;;;;;;7400754;19;20010;-78
2024/01/19 11:27:47;;;;;;;25.38;12.07;;;4.50;99.90;;;;;;7378575;19;20030;-77
2024/01/19 11:30:31;;;;;;;24.02;12.20;;;4.50;99.90;;;;;;7378947;19;20103;-76
2024/01/19 11:33:18;;;;;;;30.02;13.45;;;4.50;99.90;;;;;;7377637;19;20016;-76
2024/01/19 11:35:49;;;;;;;28.13;13.15;;;4.60;99.90;;;;;;7383699;19;20010;-79
2024/01/19 11:38:58;;;;;;;47.58;18.00;;;4.70;99.90;;;;;;7383940;19;20011;-82
2024/01/19 11:41:53;;;;;;;22.30;10.20;;;4.70;99.90;;;;;;7382114;19;20014;-81
2024/01/19 11:44:49;;;;;;;26.30;9.82;;;4.80;99.90;;;;;;7387311;19;20098;-81
2024/01/19 11:47:45;;;;;;;22.73;11.15;;;4.70;99.90;;;;;;7393916;19;20014;-76
2024/01/19 11:50:17;;;;;;;23.00;10.80;;;4.70;99.90;;;;;;7388611;19;20018;-81
2024/01/19 11:52:47;;;;;;;25.05;9.70;;;4.80;99.90;;;;;;7388856;19;20002;-81
2024/01/19 11:55:52;;;;;;;19.27;9.50;;;4.80;99.90;;;;;;7408863;19;20024;-80
2024/01/19 11:58:45;;;;;;;19.60;9.98;;;4.80;99.90;;;;;;7393588;19;20078;-81
2024/01/19 12:01:19;;;;;;;24.60;9.13;;;4.80;99.90;;;;;;7393489;19;20006;-80
2024/01/19 12:03:56;;;;;;;21.52;9.23;;;4.90;99.90;;;;;;7391206;19;20074;-79
2024/01/19 12:06:25;;;;;;;20.60;8.43;;;4.90;99.90;;;;;;7388681;19;20337;-79
2024/01/19 12:09:05;;;;;;;22.38;9.13;;;4.90;99.90;;;;;;7391467;19;20091;-77
2024/01/19 12:11:40;;;;;;;15.95;7.45;;;5.00;99.90;;;;;;7387247;19;20283;-79
2024/01/19 12:14:09;;;;;;;19.02;6.07;;;5.00;99.90;;;;;;7390242;19;20281;-79
2024/01/19 12:16:38;;;;;;;17.83;5.05;;;5.10;99.90;;;;;;7390693;19;20536;-79
2024/01/19 12:19:21;;;;;;;8.13;3.60;;;5.10;99.90;;;;;;7414009;19;20014;-80
2024/01/19 12:25:42;;;;;;;7.93;3.78;;;5.10;99.90;;;;;;7369624;19;20401;-82
2024/01/19 12:28:15;;;;;;;9.43;3.85;;;5.10;99.90;;;;;;7414911;19;20366;-80
2024/01/19 12:30:53;;;;;;;8.43;3.17;;;5.20;99.90;;;;;;7388559;19;20013;-84
2024/01/19 12:33:28;;;;;;;11.07;3.47;;;5.30;99.90;;;;;;7388138;19;20002;-79
2024/01/19 12:36:24;;;;;;;8.38;3.50;;;5.40;99.90;;;;;;7390418;19;20158;-81
2024/01/19 12:39:47;;;;;;;10.23;3.45;;;5.50;99.90;;;;;;7387685;19;20011;-80
2024/01/19 12:42:19;;;;;;;4.15;2.70;;;5.30;99.90;;;;;;7387895;19;20019;-84
2024/01/19 12:45:27;;;;;;;17.67;3.10;;;5.40;99.90;;;;;;7391808;19;20086;-82
2024/01/19 12:47:59;;;;;;;12.32;3.75;;;5.40;99.90;;;;;;7388507;19;20038;-82
2024/01/19 12:50:40;;;;;;;7.18;3.08;;;5.60;99.90;;;;;;7390493;19;20006;-84
2024/01/19 12:53:11;;;;;;;9.90;3.70;;;5.60;99.90;;;;;;7388851;19;20046;-82
2024/01/19 12:55:46;;;;;;;9.95;3.50;;;5.70;99.90;;;;;;7389336;19;20010;-83
2024/01/19 12:58:23;;;;;;;9.38;4.10;;;5.80;99.90;;;;;;7423837;19;20014;-80
2024/01/19 13:00:53;;;;;;;9.18;4.15;;;5.90;99.90;;;;;;7407744;19;20006;-75
2024/01/19 13:03:24;;;;;;;9.18;4.28;;;5.90;99.90;;;;;;7407432;19;20013;-80
2024/01/19 13:05:54;;;;;;;16.63;5.40;;;6.00;99.90;;;;;;7407177;19;20038;-78
2024/01/19 13:08:29;;;;;;;16.55;5.90;;;6.10;99.90;;;;;;7408001;19;20009;-78
2024/01/19 13:11:08;;;;;;;21.45;6.00;;;6.10;99.90;;;;;;7395747;19;19992;-80
2024/01/19 13:13:37;;;;;;;16.52;6.57;;;6.10;99.90;;;;;;7409441;19;20341;-80